Maersk Visby — 9V8827 — position and weather

sailwx.info

Track history (hours):
 
Tides and Currents Weather Stations Pressure Air Temp Water Temp Dewpoint Dewpoint Depression Visibility Wind Speed Wind Dir Waves Ship Positions

Maersk Visby

Last reported at 2017-Mar-04 22:11 UTC. Time now 2017-Mar-28 13:44 UTC.
Position N 36°44' W 075°41'.
Warning: this ship's position is 23 days out of date.

Length 180 m; draft 9.5 m.

Type: Ship (hazmat cat A). MMSI: 564979000.

Date/timePositionNaut miles runAvg speedWind from/ knotsBaromVisibWave heightAir tempDewpointWater temp
2017-Mar-04 22:11N 36°44' W 075°41'710.4
2017-Mar-04 21:33N 36°49' W 075°47'10 9.8
2017-Mar-04 20:33N 36°55' W 075°56'1211.6
2017-Mar-04 19:33N 36°59' W 076°10'10 9.7
2017-Mar-04 18:33N 36°54' W 076°20'2 1.6
2017-Mar-04 17:33N 36°53' W 076°21'0 0.0
2017-Mar-04 16:34N 36°53' W 076°21'0 0.0
2017-Mar-04 15:33N 36°53' W 076°21'0 0.0
2017-Mar-04 14:33N 36°53' W 076°21'0 0.0
2017-Mar-04 13:34N 36°53' W 076°21'0 0.0
2017-Mar-04 12:34N 36°53' W 076°21'0 0.0
2017-Mar-04 11:34N 36°53' W 076°21'0 0.0
2017-Mar-04 10:33N 36°53' W 076°21'4 4.1
2017-Mar-04 09:33N 36°57' W 076°20'1212.3
2017-Mar-04 08:33N 36°58' W 076°05'5 5.1
2017-Mar-04 07:34N 37°03' W 076°05'5415.3
2017-Mar-04 04:04N 37°57' W 076°10'4818.8
2017-Mar-04 01:31N 38°42' W 076°26'1717.4
2017-Mar-04 00:34N 38°59' W 076°23'1312.5
2017-Mar-03 23:34N 39°11' W 076°28'6 5.8
2017-Mar-03 22:31N 39°15' W 076°33'0 0.0
2017-Mar-03 21:31N 39°15' W 076°33'0 0.0
2017-Mar-03 20:31N 39°15' W 076°33'0 0.0
2017-Mar-03 19:31N 39°15' W 076°33'0 0.0
2017-Mar-03 18:31N 39°15' W 076°33'0 0.0
2017-Mar-03 17:31N 39°15' W 076°33'0 0.0
2017-Mar-03 16:31N 39°15' W 076°33'0 0.0
2017-Mar-03 15:30N 39°15' W 076°33'0 0.0
2017-Mar-03 14:31N 39°15' W 076°33'0 0.0
2017-Mar-03 13:30N 39°15' W 076°33'0 0.0
2017-Mar-03 12:25N 39°15' W 076°33'0 0.0
2017-Mar-03 11:34N 39°15' W 076°33'5 4.7
2017-Mar-03 10:33N 39°12' W 076°29'1313.3
2017-Mar-03 09:33N 38°59' W 076°23'1717.2
2017-Mar-03 08:33N 38°42' W 076°26'3917.4
2017-Mar-03 06:17N 38°04' W 076°13'6516.5
2017-Mar-03 02:23N 37°00' W 076°02'910.4
2017-Mar-03 01:29N 36°54' W 075°53'18010.0
2017-Mar-02 07:27N 39°28' W 073°53'1210.7
2017-Mar-02 06:22N 39°39' W 073°52'910.9
2017-Mar-02 05:30N 39°49' W 073°51'2310.7
2017-Mar-02 03:22N 40°12' W 073°50'8 9.6
2017-Mar-02 02:33N 40°19' W 073°49'8 8.4
2017-Mar-02 01:33N 40°28' W 073°51'1110.7
2017-Mar-02 00:34N 40°34' W 074°02'7 7.1
2017-Mar-01 23:33N 40°39' W 074°09'2 2.1
2017-Mar-01 22:33N 40°41' W 074°09'0 0.0
2017-Mar-01 21:33N 40°41' W 074°09'0 0.0
2017-Mar-01 20:30N 40°41' W 074°09'0 0.0
2017-Mar-01 19:33N 40°41' W 074°09'0 0.0
2017-Mar-01 18:33N 40°41' W 074°09'0 0.0
2017-Mar-01 17:33N 40°41' W 074°09'0 0.0
2017-Mar-01 16:33N 40°41' W 074°09'0 0.0
2017-Mar-01 15:33N 40°41' W 074°09'0 0.0
2017-Mar-01 14:33N 40°41' W 074°09'0 0.0
2017-Mar-01 13:33N 40°41' W 074°09'0 0.0
2017-Mar-01 12:33N 40°41' W 074°09'0 0.0
2017-Mar-01 11:33N 40°41' W 074°09'2 2.4
2017-Mar-01 10:33N 40°39' W 074°09'7 6.7
2017-Mar-01 09:33N 40°35' W 074°02'1110.8
2017-Mar-01 08:33N 40°28' W 073°51'  
Track history (hours):
 
Tides and Currents Weather Stations Pressure Air Temp Water Temp Dewpoint Dewpoint Depression Visibility Wind Speed Wind Dir Waves Ship Positions

Maersk Visby

Last reported at 2017-Mar-04 22:11 UTC. Time now 2017-Mar-28 13:44 UTC.
Position N 36°44' W 075°41'.
Warning: this ship's position is 23 days out of date.

Length 180 m; draft 9.5 m.

Type: Ship (hazmat cat A). MMSI: 564979000.

Date/timePositionNaut miles runAvg speedWind from/ knotsBaromVisibWave heightAir tempDewpointWater temp
2017-Mar-04 22:11N 36°44' W 075°41'710.4
2017-Mar-04 21:33N 36°49' W 075°47'10 9.8
2017-Mar-04 20:33N 36°55' W 075°56'1211.6
2017-Mar-04 19:33N 36°59' W 076°10'10 9.7
2017-Mar-04 18:33N 36°54' W 076°20'2 1.6
2017-Mar-04 17:33N 36°53' W 076°21'0 0.0
2017-Mar-04 16:34N 36°53' W 076°21'0 0.0
2017-Mar-04 15:33N 36°53' W 076°21'0 0.0
2017-Mar-04 14:33N 36°53' W 076°21'0 0.0
2017-Mar-04 13:34N 36°53' W 076°21'0 0.0
2017-Mar-04 12:34N 36°53' W 076°21'0 0.0
2017-Mar-04 11:34N 36°53' W 076°21'0 0.0
2017-Mar-04 10:33N 36°53' W 076°21'4 4.1
2017-Mar-04 09:33N 36°57' W 076°20'1212.3
2017-Mar-04 08:33N 36°58' W 076°05'5 5.1
2017-Mar-04 07:34N 37°03' W 076°05'5415.3
2017-Mar-04 04:04N 37°57' W 076°10'4818.8
2017-Mar-04 01:31N 38°42' W 076°26'1717.4
2017-Mar-04 00:34N 38°59' W 076°23'1312.5
2017-Mar-03 23:34N 39°11' W 076°28'6 5.8
2017-Mar-03 22:31N 39°15' W 076°33'0 0.0
2017-Mar-03 21:31N 39°15' W 076°33'0 0.0
2017-Mar-03 20:31N 39°15' W 076°33'0 0.0
2017-Mar-03 19:31N 39°15' W 076°33'0 0.0
2017-Mar-03 18:31N 39°15' W 076°33'0 0.0
2017-Mar-03 17:31N 39°15' W 076°33'0 0.0
2017-Mar-03 16:31N 39°15' W 076°33'0 0.0
2017-Mar-03 15:30N 39°15' W 076°33'0 0.0
2017-Mar-03 14:31N 39°15' W 076°33'0 0.0
2017-Mar-03 13:30N 39°15' W 076°33'0 0.0
2017-Mar-03 12:25N 39°15' W 076°33'0 0.0
2017-Mar-03 11:34N 39°15' W 076°33'5 4.7
2017-Mar-03 10:33N 39°12' W 076°29'1313.3
2017-Mar-03 09:33N 38°59' W 076°23'1717.2
2017-Mar-03 08:33N 38°42' W 076°26'3917.4
2017-Mar-03 06:17N 38°04' W 076°13'6516.5
2017-Mar-03 02:23N 37°00' W 076°02'910.4
2017-Mar-03 01:29N 36°54' W 075°53'18010.0
2017-Mar-02 07:27N 39°28' W 073°53'1210.7
2017-Mar-02 06:22N 39°39' W 073°52'910.9
2017-Mar-02 05:30N 39°49' W 073°51'2310.7
2017-Mar-02 03:22N 40°12' W 073°50'8 9.6
2017-Mar-02 02:33N 40°19' W 073°49'8 8.4
2017-Mar-02 01:33N 40°28' W 073°51'1110.7
2017-Mar-02 00:34N 40°34' W 074°02'7 7.1
2017-Mar-01 23:33N 40°39' W 074°09'2 2.1
2017-Mar-01 22:33N 40°41' W 074°09'0 0.0
2017-Mar-01 21:33N 40°41' W 074°09'0 0.0
2017-Mar-01 20:30N 40°41' W 074°09'0 0.0
2017-Mar-01 19:33N 40°41' W 074°09'0 0.0
2017-Mar-01 18:33N 40°41' W 074°09'0 0.0
2017-Mar-01 17:33N 40°41' W 074°09'0 0.0
2017-Mar-01 16:33N 40°41' W 074°09'0 0.0
2017-Mar-01 15:33N 40°41' W 074°09'0 0.0
2017-Mar-01 14:33N 40°41' W 074°09'0 0.0
2017-Mar-01 13:33N 40°41' W 074°09'0 0.0
2017-Mar-01 12:33N 40°41' W 074°09'0 0.0
2017-Mar-01 11:33N 40°41' W 074°09'2 2.4
2017-Mar-01 10:33N 40°39' W 074°09'7 6.7
2017-Mar-01 09:33N 40°35' W 074°02'1110.8
2017-Mar-01 08:33N 40°28' W 073°51'  

Dump ship's entire track history